Time;durP1;ratioP1;P1;durP2;ratioP2;P2;SDS_P1;SDS_P2;PMS_P1;PMS_P2;Temp;Humidity;BMP_temperature;BMP_pressure;BME280_temperature;BME280_humidity;BME280_pressure;Samples;Min_cycle;Max_cycle;Signal;HPM_P1;HPM_P2
2022/03/10 00:02:17;;;;;;;8.57;4.10;;;;;;;;;;5036803;28;20956;-59
2022/03/10 00:04:44;;;;;;;8.47;4.50;;;;;;;;;;5036199;28;20450;-59
2022/03/10 00:07:10;;;;;;;7.20;4.30;;;;;;;;;;5034489;28;20812;-59
2022/03/10 00:09:38;;;;;;;7.40;4.23;;;;;;;;;;5044132;28;20446;-59
2022/03/10 00:12:05;;;;;;;7.00;3.90;;;;;;;;;;5035114;28;20515;-60
2022/03/10 00:14:32;;;;;;;7.30;4.17;;;;;;;;;;5042853;28;20965;-60
2022/03/10 00:16:59;;;;;;;8.17;4.60;;;;;;;;;;5034025;28;20433;-59
2022/03/10 00:19:25;;;;;;;7.07;4.00;;;;;;;;;;5048612;28;20429;-59
2022/03/10 00:21:52;;;;;;;8.03;3.93;;;;;;;;;;5048104;28;20440;-59
2022/03/10 00:24:19;;;;;;;7.87;4.43;;;;;;;;;;5048527;28;21183;-59
2022/03/10 00:26:46;;;;;;;6.60;4.30;;;;;;;;;;5044103;28;20463;-59
2022/03/10 00:29:13;;;;;;;8.40;4.87;;;;;;;;;;5029361;28;20807;-60
2022/03/10 00:31:40;;;;;;;11.67;4.30;;;;;;;;;;5028057;28;20434;-59
2022/03/10 00:34:07;;;;;;;7.57;4.53;;;;;;;;;;5035232;28;20476;-59
2022/03/10 00:36:34;;;;;;;7.40;4.20;;;;;;;;;;5048021;28;20441;-59
2022/03/10 00:39:01;;;;;;;8.90;4.07;;;;;;;;;;5048015;28;20526;-59
2022/03/10 00:41:28;;;;;;;9.40;4.40;;;;;;;;;;5032757;28;20466;-60
2022/03/10 00:43:54;;;;;;;7.13;4.27;;;;;;;;;;5029529;28;20442;-60
2022/03/10 00:46:21;;;;;;;8.07;4.67;;;;;;;;;;5028343;28;20434;-60
2022/03/10 00:48:52;;;;;;;8.20;4.53;;;;;;;;;;5046574;28;20437;-59
2022/03/10 00:51:19;;;;;;;5.80;3.87;;;;;;;;;;5047998;28;20422;-59
2022/03/10 00:53:45;;;;;;;6.53;3.80;;;;;;;;;;5046371;28;20474;-59
2022/03/10 00:56:12;;;;;;;7.83;4.60;;;;;;;;;;5047908;28;20441;-59
2022/03/10 00:58:39;;;;;;;9.77;4.60;;;;;;;;;;5039948;28;21322;-59
2022/03/10 01:01:08;;;;;;;8.57;4.23;;;;;;;;;;5030454;28;20772;-61
2022/03/10 01:03:35;;;;;;;7.80;4.20;;;;;;;;;;5028008;28;20786;-59
2022/03/10 01:38:11;;;;;;;9.47;4.30;;;;;;;;;;5028051;28;20548;-59
2022/03/10 01:40:37;;;;;;;7.30;3.97;;;;;;;;;;5027637;28;20476;-59
2022/03/10 01:43:04;;;;;;;7.00;4.10;;;;;;;;;;5027509;28;20457;-59
2022/03/10 01:45:31;;;;;;;6.77;3.93;;;;;;;;;;5037868;28;20445;-59
2022/03/10 01:47:58;;;;;;;7.70;4.20;;;;;;;;;;5047063;28;20476;-60
2022/03/10 01:50:25;;;;;;;7.83;4.30;;;;;;;;;;5031188;28;20917;-59
2022/03/10 01:52:51;;;;;;;7.57;4.07;;;;;;;;;;5034965;28;20474;-59
2022/03/10 01:55:18;;;;;;;8.37;4.70;;;;;;;;;;5047525;28;20441;-60
2022/03/10 01:57:45;;;;;;;7.80;4.00;;;;;;;;;;5048415;28;20441;-59
2022/03/10 02:00:13;;;;;;;8.13;4.17;;;;;;;;;;5049690;28;20495;-59
2022/03/10 02:02:40;;;;;;;6.77;4.20;;;;;;;;;;5049945;28;20444;-59
2022/03/10 02:05:07;;;;;;;8.87;4.27;;;;;;;;;;5036053;28;20956;-59
2022/03/10 02:10:19;;;;;;;8.87;4.40;;;;;;;;;;5052910;28;20425;-60
2022/03/10 02:12:49;;;;;;;8.10;4.67;;;;;;;;;;5050326;28;20568;-59
2022/03/10 02:18:03;;;;;;;7.27;4.27;;;;;;;;;;5032138;28;20442;-60
2022/03/10 02:20:30;;;;;;;8.87;5.17;;;;;;;;;;5030892;28;20418;-59
2022/03/10 02:22:56;;;;;;;9.30;5.00;;;;;;;;;;5046026;28;20441;-59
2022/03/10 02:25:23;;;;;;;7.23;4.77;;;;;;;;;;5048508;28;20430;-60
2022/03/10 02:27:54;;;;;;;9.73;5.23;;;;;;;;;;5045466;28;20450;-59
2022/03/10 02:30:21;;;;;;;9.67;4.80;;;;;;;;;;5030649;28;20430;-59
2022/03/10 02:32:48;;;;;;;8.40;4.77;;;;;;;;;;5031014;28;20460;-59
2022/03/10 02:35:17;;;;;;;11.53;6.10;;;;;;;;;;5047922;28;20449;-59
2022/03/10 02:37:44;;;;;;;8.47;4.50;;;;;;;;;;5049086;28;20442;-60
2022/03/10 02:40:11;;;;;;;7.57;4.77;;;;;;;;;;5051092;28;20521;-60
2022/03/10 02:42:37;;;;;;;8.03;4.80;;;;;;;;;;5030584;28;20438;-59
2022/03/10 02:45:04;;;;;;;9.37;5.37;;;;;;;;;;5030437;28;20430;-59
2022/03/10 02:47:31;;;;;;;8.53;5.13;;;;;;;;;;5042052;28;20441;-59
2022/03/10 02:49:58;;;;;;;8.87;4.80;;;;;;;;;;5049982;28;20449;-59
2022/03/10 02:52:25;;;;;;;8.93;4.80;;;;;;;;;;5049698;28;21014;-59
2022/03/10 02:54:51;;;;;;;8.97;4.50;;;;;;;;;;5035084;28;20533;-59
2022/03/10 02:57:18;;;;;;;8.50;4.53;;;;;;;;;;5030659;28;20438;-60
2022/03/10 02:59:44;;;;;;;9.00;5.20;;;;;;;;;;5046820;28;20452;-59
2022/03/10 03:02:12;;;;;;;9.87;5.17;;;;;;;;;;5047738;28;20426;-60
2022/03/10 03:04:40;;;;;;;10.07;5.23;;;;;;;;;;5049570;28;20698;-59
2022/03/10 03:07:07;;;;;;;9.90;5.63;;;;;;;;;;5037687;28;20808;-59
2022/03/10 03:09:34;;;;;;;8.60;4.97;;;;;;;;;;5030333;28;20446;-61
2022/03/10 03:12:01;;;;;;;8.67;4.83;;;;;;;;;;5046313;28;20445;-59
2022/03/10 03:14:28;;;;;;;9.20;4.70;;;;;;;;;;5036385;28;20517;-59
2022/03/10 03:16:58;;;;;;;11.03;5.07;;;;;;;;;;5049586;28;20442;-59
2022/03/10 03:19:24;;;;;;;10.33;5.33;;;;;;;;;;5038270;28;20452;-60
2022/03/10 03:21:51;;;;;;;10.20;5.03;;;;;;;;;;5030875;28;20442;-59
2022/03/10 03:24:18;;;;;;;10.57;5.63;;;;;;;;;;5030657;28;20446;-59
2022/03/10 03:26:47;;;;;;;11.70;5.90;;;;;;;;;;5041626;28;20873;-59
2022/03/10 03:29:13;;;;;;;11.17;6.00;;;;;;;;;;5048992;28;20445;-59
2022/03/10 03:31:40;;;;;;;10.53;5.40;;;;;;;;;;5059559;28;20446;-59
2022/03/10 03:34:10;;;;;;;9.47;4.97;;;;;;;;;;5029470;28;20580;-60
2022/03/10 03:36:41;;;;;;;11.33;5.83;;;;;;;;;;5029338;28;20473;-60
2022/03/10 03:39:07;;;;;;;10.00;6.10;;;;;;;;;;5031817;28;20840;-60
2022/03/10 03:41:36;;;;;;;8.90;5.33;;;;;;;;;;5029041;28;20531;-59
2022/03/10 03:44:09;;;;;;;12.50;6.60;;;;;;;;;;5029154;28;20418;-61
2022/03/10 03:46:36;;;;;;;12.07;6.47;;;;;;;;;;5028835;28;20439;-59
2022/03/10 03:49:06;;;;;;;10.23;5.90;;;;;;;;;;5035396;28;20565;-60
2022/03/10 03:51:32;;;;;;;13.97;6.77;;;;;;;;;;5029997;28;20426;-60
2022/03/10 03:53:59;;;;;;;11.80;7.10;;;;;;;;;;5036071;28;20472;-59
2022/03/10 03:56:26;;;;;;;11.70;6.70;;;;;;;;;;5037387;28;20435;-59
2022/03/10 03:58:53;;;;;;;15.03;6.63;;;;;;;;;;5039535;28;20519;-59
2022/03/10 04:01:19;;;;;;;12.20;6.40;;;;;;;;;;5031530;28;21166;-60
2022/03/10 04:03:46;;;;;;;10.70;5.97;;;;;;;;;;5049109;28;20491;-59
2022/03/10 04:06:13;;;;;;;9.33;5.83;;;;;;;;;;5048490;28;20984;-60
2022/03/10 04:08:40;;;;;;;11.73;5.30;;;;;;;;;;5033071;28;20449;-59
2022/03/10 04:11:06;;;;;;;10.53;4.97;;;;;;;;;;5042546;28;20452;-60
2022/03/10 04:13:33;;;;;;;8.87;5.27;;;;;;;;;;5048184;28;20468;-59
2022/03/10 04:16:00;;;;;;;10.83;4.77;;;;;;;;;;5035027;28;20445;-60
2022/03/10 04:18:32;;;;;;;12.53;5.23;;;;;;;;;;5028708;28;20454;-59
2022/03/10 04:20:59;;;;;;;9.83;5.00;;;;;;;;;;5042069;28;20434;-60
2022/03/10 04:23:29;;;;;;;9.77;4.90;;;;;;;;;;5031671;28;20442;-59
2022/03/10 04:25:55;;;;;;;9.10;5.20;;;;;;;;;;5028498;28;20481;-59
2022/03/10 04:28:22;;;;;;;9.90;5.00;;;;;;;;;;5028234;28;20444;-59
2022/03/10 04:30:49;;;;;;;11.00;5.50;;;;;;;;;;5034250;28;20503;-60
2022/03/10 04:33:16;;;;;;;9.80;4.80;;;;;;;;;;5041686;28;20454;-59
2022/03/10 04:35:43;;;;;;;11.47;5.10;;;;;;;;;;5042488;28;20456;-59
2022/03/10 04:38:10;;;;;;;9.60;4.40;;;;;;;;;;5042089;28;20440;-59
2022/03/10 04:40:37;;;;;;;8.97;4.80;;;;;;;;;;5041798;28;20511;-60
2022/03/10 04:43:04;;;;;;;8.20;4.10;;;;;;;;;;5040903;28;20453;-60
2022/03/10 04:45:31;;;;;;;9.10;4.83;;;;;;;;;;5042486;28;21119;-60
2022/03/10 04:47:58;;;;;;;7.10;4.10;;;;;;;;;;5041208;28;20429;-59
2022/03/10 04:50:25;;;;;;;10.00;5.00;;;;;;;;;;5042054;28;20445;-59
2022/03/10 04:52:53;;;;;;;9.77;5.17;;;;;;;;;;5041798;28;20437;-60
2022/03/10 04:55:19;;;;;;;8.80;4.50;;;;;;;;;;5041752;28;20464;-60
2022/03/10 04:57:49;;;;;;;9.83;4.80;;;;;;;;;;5042299;28;20541;-62
2022/03/10 05:00:18;;;;;;;10.17;5.23;;;;;;;;;;5041231;28;20441;-60
2022/03/10 05:02:47;;;;;;;9.77;5.27;;;;;;;;;;5041254;28;20456;-60
2022/03/10 05:05:14;;;;;;;9.60;5.40;;;;;;;;;;5040404;28;20842;-61
2022/03/10 05:07:41;;;;;;;9.33;5.13;;;;;;;;;;5041019;28;20437;-59
2022/03/10 05:10:09;;;;;;;9.93;5.00;;;;;;;;;;5040240;28;20483;-60
2022/03/10 05:12:49;;;;;;;9.90;4.70;;;;;;;;;;5039625;28;20473;-59
2022/03/10 05:15:17;;;;;;;8.57;4.93;;;;;;;;;;5040358;28;20481;-58
2022/03/10 05:17:44;;;;;;;13.93;5.27;;;;;;;;;;5042234;28;20908;-61
2022/03/10 05:20:11;;;;;;;10.47;4.60;;;;;;;;;;5043942;28;20820;-59
2022/03/10 05:22:47;;;;;;;9.63;4.40;;;;;;;;;;5046358;28;21737;-59
2022/03/10 05:25:15;;;;;;;8.73;4.57;;;;;;;;;;5044324;28;20463;-58
2022/03/10 05:27:42;;;;;;;11.80;4.93;;;;;;;;;;5045358;28;20437;-58
2022/03/10 05:30:09;;;;;;;11.37;4.93;;;;;;;;;;5045095;28;20445;-59
2022/03/10 05:32:37;;;;;;;10.27;4.87;;;;;;;;;;5044197;28;20441;-59
2022/03/10 05:35:04;;;;;;;11.40;4.60;;;;;;;;;;5044963;28;21318;-59
2022/03/10 05:37:32;;;;;;;15.87;5.47;;;;;;;;;;5043696;28;20455;-59
2022/03/10 05:39:58;;;;;;;9.07;4.80;;;;;;;;;;5044614;28;20568;-59
2022/03/10 05:42:25;;;;;;;10.33;4.80;;;;;;;;;;5045256;28;20449;-61
2022/03/10 05:44:52;;;;;;;10.10;4.87;;;;;;;;;;5046149;28;20444;-60
2022/03/10 05:47:19;;;;;;;11.37;5.40;;;;;;;;;;5044483;28;20444;-59
2022/03/10 05:49:46;;;;;;;7.97;4.60;;;;;;;;;;5045853;28;20447;-60
2022/03/10 05:52:12;;;;;;;11.97;5.80;;;;;;;;;;5042827;28;20441;-59
2022/03/10 05:54:39;;;;;;;15.43;5.87;;;;;;;;;;5043454;28;21405;-59
2022/03/10 05:57:06;;;;;;;9.53;5.03;;;;;;;;;;5059441;28;20428;-59
2022/03/10 05:59:33;;;;;;;11.67;5.43;;;;;;;;;;5060623;28;20443;-59
2022/03/10 06:02:00;;;;;;;12.67;5.77;;;;;;;;;;5066794;28;21028;-59
2022/03/10 06:04:27;;;;;;;9.27;5.43;;;;;;;;;;5049539;28;20536;-59
2022/03/10 06:06:54;;;;;;;11.63;5.60;;;;;;;;;;5033197;28;20432;-59
2022/03/10 06:09:20;;;;;;;10.03;5.40;;;;;;;;;;5050930;28;20472;-59
2022/03/10 06:11:48;;;;;;;11.37;5.83;;;;;;;;;;5039459;28;20561;-60
2022/03/10 06:14:17;;;;;;;13.47;5.93;;;;;;;;;;5031112;28;20479;-59
2022/03/10 06:16:44;;;;;;;9.67;6.03;;;;;;;;;;5044897;28;20787;-59
2022/03/10 06:19:12;;;;;;;10.23;5.47;;;;;;;;;;5060334;28;20523;-59
2022/03/10 06:21:38;;;;;;;10.93;6.10;;;;;;;;;;5067625;28;20950;-59
2022/03/10 06:24:06;;;;;;;11.90;6.43;;;;;;;;;;5058410;28;20428;-59
2022/03/10 06:26:36;;;;;;;12.23;6.57;;;;;;;;;;5070870;28;20424;-59
2022/03/10 06:29:04;;;;;;;10.93;5.93;;;;;;;;;;5059818;28;20432;-59
2022/03/10 06:31:33;;;;;;;13.87;6.30;;;;;;;;;;5050855;28;20461;-59
2022/03/10 06:33:59;;;;;;;14.10;6.03;;;;;;;;;;5031260;28;20565;-59
2022/03/10 06:36:26;;;;;;;11.60;5.93;;;;;;;;;;5030691;28;21110;-59
2022/03/10 06:38:53;;;;;;;13.30;6.13;;;;;;;;;;5031462;28;20453;-59
2022/03/10 06:41:20;;;;;;;12.90;5.20;;;;;;;;;;5029047;28;20470;-59
2022/03/10 06:43:46;;;;;;;10.87;5.67;;;;;;;;;;5030303;28;20480;-59
2022/03/10 06:46:13;;;;;;;12.17;5.43;;;;;;;;;;5030277;28;20519;-59
2022/03/10 06:48:40;;;;;;;13.90;5.27;;;;;;;;;;5030633;28;20840;-59
2022/03/10 06:51:07;;;;;;;13.50;5.47;;;;;;;;;;5030634;28;20426;-59
2022/03/10 06:53:33;;;;;;;9.80;5.10;;;;;;;;;;5030360;28;20442;-60
2022/03/10 06:56:00;;;;;;;12.63;5.47;;;;;;;;;;5030204;28;20422;-59
2022/03/10 06:58:27;;;;;;;8.93;4.93;;;;;;;;;;5040059;28;20437;-59
2022/03/10 07:00:53;;;;;;;13.67;6.00;;;;;;;;;;5044147;28;20438;-60
2022/03/10 07:03:26;;;;;;;11.50;5.87;;;;;;;;;;5044704;28;20429;-59
2022/03/10 07:05:53;;;;;;;9.67;4.77;;;;;;;;;;5042667;28;21578;-59
2022/03/10 07:08:20;;;;;;;9.80;4.33;;;;;;;;;;5043269;28;20449;-59
2022/03/10 07:10:48;;;;;;;10.03;5.10;;;;;;;;;;5044362;28;20437;-60
2022/03/10 07:13:15;;;;;;;10.53;5.30;;;;;;;;;;5044318;28;20442;-60
2022/03/10 07:15:42;;;;;;;11.73;5.27;;;;;;;;;;5042123;28;20469;-59
2022/03/10 07:18:09;;;;;;;10.90;5.17;;;;;;;;;;5044130;28;20452;-59
2022/03/10 07:20:36;;;;;;;12.60;5.47;;;;;;;;;;5043365;28;20552;-60
2022/03/10 07:23:03;;;;;;;12.20;5.47;;;;;;;;;;5043121;28;20498;-59
2022/03/10 07:25:30;;;;;;;11.10;5.63;;;;;;;;;;5044126;28;21012;-59
2022/03/10 07:27:57;;;;;;;8.97;5.40;;;;;;;;;;5043846;28;20507;-60
2022/03/10 07:30:23;;;;;;;10.90;5.20;;;;;;;;;;5043888;28;20449;-60
2022/03/10 07:32:50;;;;;;;12.93;5.07;;;;;;;;;;5043687;28;20476;-60
2022/03/10 07:35:17;;;;;;;10.33;5.57;;;;;;;;;;5042688;28;20246;-60
2022/03/10 07:37:46;;;;;;;13.70;5.57;;;;;;;;;;5042340;28;20198;-60
2022/03/10 07:40:13;;;;;;;15.53;5.60;;;;;;;;;;5042630;28;20257;-60
2022/03/10 07:42:40;;;;;;;10.70;5.77;;;;;;;;;;5042176;28;20256;-62
2022/03/10 07:45:07;;;;;;;11.10;5.43;;;;;;;;;;5043003;28;20213;-60
2022/03/10 07:47:33;;;;;;;9.90;5.87;;;;;;;;;;5042938;28;20201;-61
2022/03/10 07:50:01;;;;;;;9.87;5.30;;;;;;;;;;5042107;28;21079;-61
2022/03/10 07:52:28;;;;;;;11.40;4.93;;;;;;;;;;5041419;28;20199;-60
2022/03/10 07:54:54;;;;;;;9.77;5.03;;;;;;;;;;5042545;28;20202;-61
2022/03/10 07:57:21;;;;;;;11.60;5.43;;;;;;;;;;5042896;28;20206;-60
2022/03/10 07:59:48;;;;;;;10.03;5.10;;;;;;;;;;5043084;28;20195;-63
2022/03/10 08:02:15;;;;;;;8.53;4.90;;;;;;;;;;5043158;28;20268;-60
2022/03/10 08:04:42;;;;;;;8.27;4.70;;;;;;;;;;5044165;28;20194;-60
2022/03/10 08:07:08;;;;;;;7.77;4.83;;;;;;;;;;5043938;28;20216;-60
2022/03/10 08:09:36;;;;;;;8.13;4.47;;;;;;;;;;5042579;28;20190;-60
2022/03/10 08:12:04;;;;;;;11.00;4.50;;;;;;;;;;5042833;28;20214;-61
2022/03/10 08:14:30;;;;;;;7.93;4.97;;;;;;;;;;5043311;28;20677;-60
2022/03/10 08:16:57;;;;;;;9.63;4.97;;;;;;;;;;5041833;28;20294;-60
2022/03/10 08:19:24;;;;;;;9.80;5.30;;;;;;;;;;5042615;28;20198;-60
2022/03/10 08:21:51;;;;;;;7.57;4.73;;;;;;;;;;5041818;28;20604;-60
2022/03/10 08:24:18;;;;;;;8.17;5.07;;;;;;;;;;5042235;28;20195;-60
2022/03/10 08:26:45;;;;;;;7.77;4.50;;;;;;;;;;5042720;28;20309;-61
2022/03/10 08:29:13;;;;;;;7.20;4.43;;;;;;;;;;5042935;28;20186;-61
2022/03/10 08:31:40;;;;;;;9.10;4.80;;;;;;;;;;5042577;28;20194;-61
2022/03/10 08:34:07;;;;;;;9.20;4.47;;;;;;;;;;5043099;28;20187;-60
2022/03/10 08:36:34;;;;;;;10.13;5.30;;;;;;;;;;5042579;28;20206;-60
2022/03/10 08:39:01;;;;;;;10.27;5.20;;;;;;;;;;5043748;28;20187;-60
2022/03/10 08:41:27;;;;;;;10.57;4.93;;;;;;;;;;5042438;28;20724;-60
2022/03/10 08:43:54;;;;;;;12.73;5.50;;;;;;;;;;5042799;28;20622;-61
2022/03/10 08:46:21;;;;;;;11.83;5.70;;;;;;;;;;5041727;28;20221;-60
2022/03/10 08:48:48;;;;;;;12.67;5.33;;;;;;;;;;5042511;28;20187;-60
2022/03/10 08:51:15;;;;;;;10.63;5.17;;;;;;;;;;5042422;28;20716;-59
2022/03/10 08:53:41;;;;;;;9.57;4.73;;;;;;;;;;5043740;28;20196;-60
2022/03/10 08:56:09;;;;;;;9.13;4.10;;;;;;;;;;5046342;28;20232;-60
2022/03/10 08:58:36;;;;;;;9.67;4.60;;;;;;;;;;5046017;28;20189;-60
2022/03/10 09:01:02;;;;;;;8.63;3.97;;;;;;;;;;5045101;28;20240;-59
2022/03/10 09:03:48;;;;;;;10.20;4.70;;;;;;;;;;5046864;28;20272;-61
2022/03/10 09:06:16;;;;;;;6.97;4.60;;;;;;;;;;5045321;28;20561;-60
2022/03/10 09:08:45;;;;;;;7.77;4.43;;;;;;;;;;5046834;28;20205;-61
2022/03/10 09:11:12;;;;;;;7.47;4.40;;;;;;;;;;5046674;28;20270;-62
2022/03/10 09:13:41;;;;;;;7.47;3.63;;;;;;;;;;5046478;28;20195;-62
2022/03/10 09:16:07;;;;;;;10.00;4.37;;;;;;;;;;5045908;28;20221;-60
2022/03/10 09:18:34;;;;;;;6.97;3.93;;;;;;;;;;5045230;28;20183;-60
2022/03/10 09:21:02;;;;;;;9.37;3.57;;;;;;;;;;5046298;28;20194;-61
2022/03/10 09:23:28;;;;;;;7.60;4.30;;;;;;;;;;5046154;28;20232;-61
2022/03/10 09:25:55;;;;;;;7.93;3.90;;;;;;;;;;5043568;28;20268;-61
2022/03/10 09:28:22;;;;;;;8.37;4.43;;;;;;;;;;5045464;28;20256;-61
2022/03/10 09:30:49;;;;;;;6.33;3.23;;;;;;;;;;5044642;28;20293;-59
2022/03/10 09:33:16;;;;;;;9.03;3.80;;;;;;;;;;5046368;28;20667;-60
2022/03/10 09:35:42;;;;;;;7.73;3.53;;;;;;;;;;5044883;28;20309;-64
2022/03/10 09:38:09;;;;;;;8.53;4.50;;;;;;;;;;5046846;28;20198;-60
2022/03/10 09:40:36;;;;;;;8.00;3.93;;;;;;;;;;5045947;28;20235;-60
2022/03/10 09:43:03;;;;;;;9.90;3.97;;;;;;;;;;5045706;28;20215;-60
2022/03/10 09:45:30;;;;;;;8.97;4.27;;;;;;;;;;5045507;28;20195;-61
2022/03/10 09:47:57;;;;;;;7.97;4.70;;;;;;;;;;5045104;28;20218;-61
2022/03/10 09:50:24;;;;;;;7.70;3.50;;;;;;;;;;5044567;28;20201;-61
2022/03/10 09:52:51;;;;;;;5.83;3.40;;;;;;;;;;5045579;28;20841;-61
2022/03/10 09:55:18;;;;;;;8.40;3.60;;;;;;;;;;5044234;28;20246;-61
2022/03/10 09:57:45;;;;;;;6.43;3.60;;;;;;;;;;5045000;28;20199;-62
2022/03/10 10:00:13;;;;;;;7.43;3.50;;;;;;;;;;5044485;28;20648;-61
2022/03/10 10:02:40;;;;;;;11.83;3.77;;;;;;;;;;5044389;28;20733;-61
2022/03/10 10:05:20;;;;;;;5.40;3.50;;;;;;;;;;5043793;28;20241;-62
2022/03/10 10:08:19;;;;;;;10.70;3.73;;;;;;;;;;5044045;28;20229;-61
2022/03/10 10:10:50;;;;;;;6.30;3.17;;;;;;;;;;5054706;28;20242;-64
2022/03/10 10:13:27;;;;;;;7.40;3.63;;;;;;;;;;5044296;28;20199;-63
2022/03/10 10:15:56;;;;;;;6.00;3.07;;;;;;;;;;5043490;28;20262;-60
2022/03/10 10:18:23;;;;;;;6.90;3.53;;;;;;;;;;5044001;28;20186;-60
2022/03/10 10:21:14;;;;;;;8.70;3.80;;;;;;;;;;5043653;28;20280;-61
2022/03/10 10:23:41;;;;;;;8.07;3.43;;;;;;;;;;5044560;28;20264;-60
2022/03/10 10:26:11;;;;;;;6.30;3.30;;;;;;;;;;5043319;28;20191;-60
2022/03/10 10:28:45;;;;;;;4.73;2.90;;;;;;;;;;5043881;28;20897;-60
2022/03/10 10:31:16;;;;;;;5.33;3.00;;;;;;;;;;5043864;28;20715;-61
2022/03/10 10:33:43;;;;;;;4.17;2.60;;;;;;;;;;5043721;28;20195;-62
2022/03/10 10:36:16;;;;;;;5.53;2.20;;;;;;;;;;5044639;28;20350;-62
2022/03/10 10:38:44;;;;;;;3.97;2.40;;;;;;;;;;5045328;28;20634;-61
2022/03/10 10:41:17;;;;;;;3.67;2.30;;;;;;;;;;5045103;28;20275;-61
2022/03/10 10:43:46;;;;;;;4.47;2.20;;;;;;;;;;5045068;28;20214;-64
2022/03/10 10:46:23;;;;;;;3.83;2.10;;;;;;;;;;5043366;28;20301;-61
2022/03/10 10:48:53;;;;;;;4.83;2.10;;;;;;;;;;5042575;28;20619;-61
2022/03/10 10:51:27;;;;;;;5.07;2.40;;;;;;;;;;5044707;28;20202;-61
2022/03/10 10:53:54;;;;;;;4.87;2.20;;;;;;;;;;5043615;28;20213;-61
2022/03/10 10:56:21;;;;;;;4.93;2.37;;;;;;;;;;5043756;28;20222;-61
2022/03/10 10:58:48;;;;;;;5.07;2.40;;;;;;;;;;5043390;28;20202;-60
2022/03/10 11:01:34;;;;;;;6.13;2.80;;;;;;;;;;5044706;28;20241;-61
2022/03/10 11:04:03;;;;;;;5.83;2.50;;;;;;;;;;5044251;28;20318;-61
2022/03/10 11:06:30;;;;;;;8.87;2.90;;;;;;;;;;5044250;28;20209;-61
2022/03/10 11:08:57;;;;;;;4.10;2.40;;;;;;;;;;5043520;28;20846;-61
2022/03/10 11:11:24;;;;;;;4.40;2.40;;;;;;;;;;5044851;28;20573;-60
2022/03/10 11:13:51;;;;;;;4.30;2.00;;;;;;;;;;5044567;28;20210;-61
2022/03/10 11:16:18;;;;;;;5.67;2.77;;;;;;;;;;5043023;28;20219;-60
2022/03/10 11:18:52;;;;;;;4.27;2.40;;;;;;;;;;5042723;28;20706;-61
2022/03/10 11:21:38;;;;;;;10.63;2.97;;;;;;;;;;5044482;28;20198;-60
2022/03/10 11:24:10;;;;;;;4.63;2.73;;;;;;;;;;5043045;28;20557;-62
2022/03/10 11:26:40;;;;;;;5.13;2.23;;;;;;;;;;5041986;28;20203;-60
2022/03/10 11:29:08;;;;;;;3.40;2.03;;;;;;;;;;5042876;28;20195;-61
2022/03/10 11:31:34;;;;;;;5.10;2.13;;;;;;;;;;5043668;28;20206;-60
2022/03/10 11:34:01;;;;;;;8.00;2.70;;;;;;;;;;5042581;28;20563;-61
2022/03/10 11:36:31;;;;;;;4.23;2.40;;;;;;;;;;5057910;28;20319;-62
2022/03/10 11:38:59;;;;;;;6.03;2.40;;;;;;;;;;5043863;28;20241;-61
2022/03/10 11:41:26;;;;;;;5.03;2.70;;;;;;;;;;5043314;28;20329;-60
2022/03/10 11:43:54;;;;;;;5.63;2.90;;;;;;;;;;5043994;28;20179;-60
2022/03/10 11:46:25;;;;;;;5.47;3.17;;;;;;;;;;5040830;28;20608;-61
2022/03/10 11:48:59;;;;;;;6.60;2.97;;;;;;;;;;5058192;28;20719;-62
2022/03/10 11:51:40;;;;;;;5.53;2.80;;;;;;;;;;5043665;28;20825;-60
2022/03/10 11:54:08;;;;;;;7.80;2.97;;;;;;;;;;5044192;28;20194;-62
2022/03/10 11:56:44;;;;;;;3.77;2.67;;;;;;;;;;5043299;28;20282;-62
2022/03/10 11:59:16;;;;;;;3.80;2.60;;;;;;;;;;5043530;28;20201;-62
2022/03/10 12:01:43;;;;;;;5.87;2.60;;;;;;;;;;5043033;28;20207;-61
2022/03/10 12:04:14;;;;;;;4.43;2.60;;;;;;;;;;5043581;28;20221;-61
2022/03/10 12:06:46;;;;;;;4.53;2.47;;;;;;;;;;5042762;28;20202;-61
2022/03/10 12:09:33;;;;;;;4.90;2.50;;;;;;;;;;5043591;28;20230;-59
2022/03/10 12:12:13;;;;;;;5.30;2.77;;;;;;;;;;5043971;28;20191;-59
2022/03/10 12:15:23;;;;;;;9.10;2.60;;;;;;;;;;5042275;28;20186;-60
2022/03/10 12:17:52;;;;;;;6.13;2.97;;;;;;;;;;5042522;28;20222;-60
2022/03/10 12:20:24;;;;;;;6.97;2.70;;;;;;;;;;5042416;28;20237;-59
2022/03/10 12:23:12;;;;;;;7.20;3.30;;;;;;;;;;5042830;28;20230;-59
2022/03/10 12:25:40;;;;;;;4.67;2.57;;;;;;;;;;5042222;28;20195;-59
2022/03/10 12:28:07;;;;;;;6.73;2.90;;;;;;;;;;5042663;28;20195;-59
2022/03/10 12:30:38;;;;;;;9.63;3.40;;;;;;;;;;5040942;28;20245;-59
2022/03/10 12:33:05;;;;;;;4.30;2.73;;;;;;;;;;5041133;28;20189;-60
2022/03/10 12:35:32;;;;;;;4.37;2.87;;;;;;;;;;5041561;28;20205;-60
2022/03/10 12:37:59;;;;;;;6.30;2.87;;;;;;;;;;5042093;28;20194;-59
2022/03/10 12:40:27;;;;;;;4.43;2.90;;;;;;;;;;5041543;28;20230;-59
2022/03/10 12:42:59;;;;;;;5.67;2.70;;;;;;;;;;5042391;28;20657;-60
2022/03/10 12:45:26;;;;;;;5.47;3.27;;;;;;;;;;5040615;28;20393;-60
2022/03/10 12:47:54;;;;;;;4.10;2.63;;;;;;;;;;5043397;28;20284;-61
2022/03/10 12:50:22;;;;;;;6.27;3.13;;;;;;;;;;5042559;28;20202;-61
2022/03/10 12:52:48;;;;;;;6.53;3.30;;;;;;;;;;5043379;28;20210;-61
2022/03/10 12:55:15;;;;;;;5.37;3.00;;;;;;;;;;5042762;28;20621;-61
2022/03/10 12:57:42;;;;;;;6.73;3.53;;;;;;;;;;5042541;28;20256;-60
2022/03/10 13:00:18;;;;;;;5.60;2.80;;;;;;;;;;5043262;28;20539;-61
2022/03/10 13:02:45;;;;;;;6.53;3.23;;;;;;;;;;5043620;28;20274;-60
2022/03/10 13:05:15;;;;;;;6.33;3.20;;;;;;;;;;5043297;28;20661;-61
2022/03/10 13:07:42;;;;;;;6.20;2.97;;;;;;;;;;5041395;28;20191;-61
2022/03/10 13:10:09;;;;;;;7.17;3.40;;;;;;;;;;5042055;28;20187;-61
2022/03/10 13:12:38;;;;;;;7.77;2.83;;;;;;;;;;5042695;28;20197;-61
2022/03/10 13:15:05;;;;;;;4.93;2.40;;;;;;;;;;5041073;28;20278;-63
2022/03/10 13:17:41;;;;;;;5.10;2.63;;;;;;;;;;5042123;28;20222;-60
2022/03/10 13:20:23;;;;;;;5.07;2.50;;;;;;;;;;5041166;28;20194;-63
2022/03/10 13:22:54;;;;;;;3.30;2.30;;;;;;;;;;5041862;28;20266;-60
2022/03/10 13:25:21;;;;;;;4.63;2.70;;;;;;;;;;5039735;28;20230;-62
2022/03/10 13:27:49;;;;;;;4.57;2.27;;;;;;;;;;5040582;28;20551;-60
2022/03/10 13:30:28;;;;;;;4.53;2.67;;;;;;;;;;5041149;28;20207;-61
2022/03/10 13:32:56;;;;;;;4.87;2.70;;;;;;;;;;5041943;28;20838;-60
2022/03/10 13:35:26;;;;;;;4.47;2.80;;;;;;;;;;5039907;28;20273;-61
2022/03/10 13:37:53;;;;;;;4.03;2.53;;;;;;;;;;5042092;28;20757;-60
2022/03/10 13:40:20;;;;;;;6.20;2.70;;;;;;;;;;5042642;28;20254;-60
2022/03/10 13:42:51;;;;;;;4.70;2.50;;;;;;;;;;5045491;28;20203;-60
2022/03/10 13:45:18;;;;;;;5.87;2.50;;;;;;;;;;5042646;28;20562;-61
2022/03/10 13:47:48;;;;;;;4.20;2.23;;;;;;;;;;5045149;28;20191;-60
2022/03/10 13:50:16;;;;;;;6.10;2.67;;;;;;;;;;5045020;28;20611;-61
2022/03/10 13:52:43;;;;;;;3.30;2.37;;;;;;;;;;5044243;28;20179;-64
2022/03/10 13:55:11;;;;;;;4.40;2.70;;;;;;;;;;5044546;28;20186;-63
2022/03/10 13:57:38;;;;;;;6.77;3.00;;;;;;;;;;5044500;28;20725;-62
2022/03/10 14:00:07;;;;;;;6.43;2.67;;;;;;;;;;5044957;28;20226;-62
2022/03/10 14:02:34;;;;;;;4.13;2.43;;;;;;;;;;5044238;28;20187;-60
2022/03/10 14:05:10;;;;;;;4.30;2.70;;;;;;;;;;5044228;28;20195;-61
2022/03/10 14:07:36;;;;;;;4.43;2.60;;;;;;;;;;5044837;28;20183;-63
2022/03/10 14:10:04;;;;;;;6.13;2.93;;;;;;;;;;5043070;28;20661;-62
2022/03/10 14:12:31;;;;;;;4.80;2.80;;;;;;;;;;5044071;28;20187;-61
2022/03/10 14:14:58;;;;;;;5.63;3.10;;;;;;;;;;5044485;28;20201;-62
2022/03/10 14:17:41;;;;;;;7.47;3.13;;;;;;;;;;5043754;28;20234;-62
2022/03/10 14:20:08;;;;;;;5.57;2.47;;;;;;;;;;5043883;28;20714;-60
2022/03/10 14:22:35;;;;;;;6.63;2.80;;;;;;;;;;5043823;28;20278;-62
2022/03/10 14:25:04;;;;;;;5.00;2.70;;;;;;;;;;5043456;28;20203;-63
2022/03/10 14:27:39;;;;;;;7.10;3.10;;;;;;;;;;5044612;28;20182;-61
2022/03/10 14:30:08;;;;;;;5.30;2.60;;;;;;;;;;5042754;28;20861;-63
2022/03/10 14:32:35;;;;;;;6.13;2.87;;;;;;;;;;5044229;28;20228;-61
2022/03/10 14:35:02;;;;;;;4.70;2.77;;;;;;;;;;5040906;28;20186;-62
2022/03/10 14:37:29;;;;;;;4.43;2.60;;;;;;;;;;5043608;28;20621;-61
2022/03/10 14:39:58;;;;;;;6.37;3.20;;;;;;;;;;5043385;28;20220;-61
2022/03/10 14:42:24;;;;;;;4.47;3.00;;;;;;;;;;5044259;28;20222;-61
2022/03/10 14:44:51;;;;;;;5.97;2.67;;;;;;;;;;5044279;28;20179;-61
2022/03/10 14:47:18;;;;;;;4.93;3.13;;;;;;;;;;5043536;28;20198;-61
2022/03/10 14:49:45;;;;;;;5.37;2.80;;;;;;;;;;5042613;28;20944;-61
2022/03/10 14:52:19;;;;;;;6.07;2.80;;;;;;;;;;5042938;28;20290;-61
2022/03/10 14:54:47;;;;;;;6.87;3.23;;;;;;;;;;5027225;28;20203;-61
2022/03/10 14:57:16;;;;;;;5.77;3.20;;;;;;;;;;5043942;28;20222;-61
2022/03/10 14:59:43;;;;;;;5.90;2.90;;;;;;;;;;5043435;28;20195;-62
2022/03/10 15:02:10;;;;;;;6.27;2.97;;;;;;;;;;5043104;28;20195;-61
2022/03/10 15:04:38;;;;;;;4.87;2.70;;;;;;;;;;5043396;28;21164;-62
2022/03/10 15:07:05;;;;;;;7.10;2.83;;;;;;;;;;5042170;28;20194;-61
2022/03/10 15:09:36;;;;;;;4.40;2.70;;;;;;;;;;5043565;28;20243;-61
2022/03/10 15:12:03;;;;;;;4.03;2.70;;;;;;;;;;5042329;28;20734;-62
2022/03/10 15:14:30;;;;;;;5.43;2.70;;;;;;;;;;5042926;28;20183;-61
2022/03/10 15:16:58;;;;;;;5.77;2.40;;;;;;;;;;5043234;28;20294;-61
2022/03/10 15:19:26;;;;;;;3.73;2.50;;;;;;;;;;5043025;28;20183;-61
2022/03/10 15:21:53;;;;;;;5.07;2.63;;;;;;;;;;5043537;28;20187;-63
2022/03/10 15:24:19;;;;;;;5.63;2.60;;;;;;;;;;5042804;28;20194;-61
2022/03/10 15:26:46;;;;;;;5.90;3.00;;;;;;;;;;5042838;28;20202;-60